Hallett, OK (74034)

04:14 AM CST del 25 Gennaio 2015 (GMT -0600)
PAWNEE | Change Station
CLOSE
Current Station
Stazione meteo personale
Location: Jennings, OK
Altitudine: 925 ft
Stazioni meteo nelle vicinanze
Avvisi attivi: Wind Advisory

Alt. 925 ft 36.24 °N, 96.60 °W | Updated 6 seconds ago

Coperto
Coperto
52.2 °F
Sembra 52.2 °F
N
3.8
Vento Variabile Vento da Ovest
Gusts 7.6 mph

Oggi
Massima -- | Minima -- °F
--% Possibilità di precip.
Ieri
Massima -- | Minima -- °F
Precip. -- in
7:32 AM 5:45 PM
Luna crescente, 31% visible
Pressione 29.86 in
Visibilità 10.0 miglia
Nuvole Sereno
Punto di rugiada 38 °F
Umidità 59%
Piovosità 0.00 in
Spessore del manto nevoso Non disponibile.
Raggi UV 0 fuori da 12
Polline 4.20 fuori da 12
Qualità dell'aria Non disponibile.
Flu Activity Non disponibile.
METAR KCUH 250955Z AUTO 27005KT 10SM CLR 08/03 A2986 RMK AO2

More Conditions Fewer Conditions

Pressione 29.86 in
Visibilità 10.0 miglia
Nuvole Sereno
Punto di rugiada 38 °F
Umidità 59%
Piovosità 0.00 in
Spessore del manto nevoso Non disponibile.
Raggi UV 0 fuori da 12
Polline 4.20 fuori da 12
Qualità dell'aria Non disponibile.
Flu Activity Non disponibile.
METAR KCUH 250955Z AUTO 27005KT 10SM CLR 08/03 A2986 RMK AO2

More Conditions Fewer Conditions

Nowcast | as of 4:02 am CST on January 25, 2015

At 400 am...National Weather Service Doppler radars showed patches of light rain and drizzle across portions of eastern Oklahoma and western Arkansas...mainly south and east of Interstate 44. Movement was to the east-southeast at 45 mph. Through 600 am...patches of light rain and drizzle will continue to race across eastern Oklahoma and western Arkansas.

×

10-Day Weather Forecast

Almanac

Astronomia

Jan. 25, 2015 Alba Tramonto
Ora attuale
Crepuscolo civile
Crepuscolo nautico
Crepuscolo astronomico
Luna
Estensione della luce visibile
Lunghezza del giorno
Tomorrow will be .
, % of the Moon is Illuminated

Gli estremi di oggi

State Highs State Lows

Community

WunderPhotos

Upload Photos

1,789,861 foto caricate!

WunderBlogs® & News

Nearby

Qualità dell'aria

  Qualità dell'aria Indice AQ Inquinante
Not available.

Profondità neve

Stazione Profondità Altitudine

Attività sismica

Città  Distanza Mag. Data & Ora
Minimo Magnitudo Mostrato è 2.5.

Temperature delle acque costiere

Località Temperatura

Stazioni meteo nelle vicinanze